Aviation Digital Data Service (ADDS)

Output produced by METARs form (2355 UTC 23 May 2022)
found at http://www.aviationweather.gov/metar/data/
 
KUAO 232340Z 2400/2424 VRB04KT P6SM BKN070 
     FM241200 05003KT 4SM BCFG BR SCT001 SCT070 
     FM241700 VRB03KT P6SM FEW030 BKN080
       
KUES 232339Z 2400/2424 08004KT P6SM BKN150 
     FM240600 06003KT P6SM BKN150 
     FM241300 07003KT P6SM SCT150 
     FM241700 11007KT P6SM SCT050 BKN150
       
KUIN 232324Z 2400/2424 09006KT P6SM BKN100 
     FM241400 08010G16KT P6SM BKN080
       
KUKI 232327Z 2400/2424 32010G16KT P6SM SKC 
     FM240300 34005KT P6SM SKC 
     FM242000 32010G16KT P6SM SKC
       
KUNV 232321Z 2400/2424 06003KT P6SM OVC100 
     FM241000 VRB02KT P6SM OVC050 
     FM241200 14005KT P6SM OVC025
       
KUTS 232336Z 2400/2424 VRB04KT P6SM SCT025 
     FM240400 12005KT P6SM FEW015 BKN025 
     FM241000 14008KT 6SM BR VCTS BKN015CB 
     FM241600 17011KT P6SM BKN035